Terminal Aerodrome Forecast
Issued by NWS Flagstaff, AZ

Home | Current Version | Previous Version | Text Only | Print | Product List | Glossary On
Versions: 1 2 3 4 5 6 7 8 9 10 11 12 13 14 15 16 17 18 19 20 21 22 23 24 25
000
FTUS45 KFGZ 031100
TAFFLG
TAF
KFLG 031140Z 0312/0412 VRB04KT P6SM SCT010 BKN030
      TEMPO 0312/0315 6SM -SHSN BKN010
     FM031800 25010KT P6SM VCSH SCT012 BKN025
      TEMPO 0318/0322 3SM -SHSN BKN015 BKN025
     FM032200 25010KT 3SM -SHSN BR BKN012 BKN022
     FM040400 VRB03KT 5SM -SHSN SCT012 BKN022=

USA.gov is the U.S. government's official web portal to all federal, state and local government web resources and services.